createdAt,value
2019-04-10T00:01:21.966Z,5.08
2019-04-10T00:03:55.322Z,3.72
2019-04-10T00:06:27.875Z,3.58
2019-04-10T00:09:00.887Z,3.95
2019-04-10T00:11:34.583Z,4.70
2019-04-10T00:15:16.114Z,3.58
2019-04-10T00:17:40.918Z,4.97
2019-04-10T00:20:12.859Z,2.90
2019-04-10T00:22:44.964Z,4.00
2019-04-10T00:25:16.893Z,3.22
2019-04-10T00:27:48.761Z,3.42
2019-04-10T00:30:22.496Z,2.92
2019-04-10T00:32:54.495Z,4.97
2019-04-10T00:35:27.671Z,3.10
2019-04-10T00:37:59.691Z,2.47
2019-04-10T00:40:33.209Z,3.22
2019-04-10T00:43:06.587Z,1.95
2019-04-10T00:45:51.443Z,3.70
2019-04-10T00:48:23.969Z,3.70
2019-04-10T00:50:56.881Z,2.92
2019-04-10T00:53:29.533Z,3.25
2019-04-10T00:56:01.933Z,3.95
2019-04-10T00:58:33.896Z,3.47
2019-04-10T01:01:05.701Z,4.12
2019-04-10T01:03:44.270Z,4.35
2019-04-10T01:06:16.875Z,4.08
2019-04-10T01:08:48.924Z,4.00
2019-04-10T01:11:21.124Z,2.62
2019-04-10T01:13:53.711Z,3.15
2019-04-10T01:16:25.555Z,3.42
2019-04-10T01:19:15.484Z,2.83
2019-04-10T01:22:00.984Z,3.45
2019-04-10T01:24:25.783Z,3.35
2019-04-10T01:26:57.796Z,3.10
2019-04-10T01:29:41.823Z,3.83
2019-04-10T01:35:44.681Z,3.22
2019-04-10T01:41:50.148Z,4.42
2019-04-10T01:44:24.734Z,4.20
2019-04-10T01:52:39.218Z,3.95
2019-04-10T01:55:20.079Z,3.42
2019-04-10T01:57:44.880Z,2.95
2019-04-10T02:00:19.545Z,3.92
2019-04-10T02:02:52.508Z,4.53
2019-04-10T02:05:24.857Z,3.83
2019-04-10T02:08:03.210Z,5.75
2019-04-10T02:10:30.069Z,5.30
2019-04-10T02:13:03.153Z,3.40
2019-04-10T02:15:34.945Z,3.98
2019-04-10T02:18:06.734Z,3.92
2019-04-10T02:20:38.913Z,4.75
2019-04-10T02:23:10.745Z,3.58
2019-04-10T02:25:43.188Z,4.12
2019-04-10T02:28:15.124Z,3.37
2019-04-10T02:30:47.890Z,4.30
2019-04-10T02:33:19.796Z,4.12
2019-04-10T02:35:52.626Z,3.50
2019-04-10T02:38:40.085Z,3.50
2019-04-10T02:40:59.202Z,3.17
2019-04-10T02:43:31.187Z,3.98
2019-04-10T02:46:04.067Z,4.55
2019-04-10T02:48:36.301Z,4.30
2019-04-10T02:51:09.593Z,5.10
2019-04-10T02:53:43.696Z,4.05
2019-04-10T02:56:18.056Z,4.37
2019-04-10T02:58:51.563Z,3.65
2019-04-10T03:01:25.175Z,4.12
2019-04-10T03:03:57.301Z,3.98
2019-04-10T03:06:29.376Z,4.28
2019-04-10T03:09:16.333Z,4.20
2019-04-10T03:11:35.830Z,3.72
2019-04-10T03:14:08.089Z,3.72
2019-04-10T03:16:41.704Z,5.30
2019-04-10T03:19:13.757Z,5.15
2019-04-10T03:21:47.063Z,4.03
2019-04-10T03:24:19.192Z,4.10
2019-04-10T03:26:52.067Z,3.85
2019-04-10T03:29:24.121Z,3.98
2019-04-10T03:31:57.573Z,3.98
2019-04-10T03:34:34.280Z,3.92
2019-04-10T03:37:04.890Z,4.75
2019-04-10T03:39:36.632Z,4.78
2019-04-10T03:42:08.570Z,4.08
2019-04-10T03:44:40.879Z,3.77
2019-04-10T03:47:13.325Z,4.42
2019-04-10T03:49:46.778Z,4.22
2019-04-10T03:52:19.003Z,4.85
2019-04-10T03:54:50.922Z,3.50
2019-04-10T03:57:22.677Z,4.62
2019-04-10T03:59:55.943Z,5.60
2019-04-10T04:02:27.991Z,4.60
2019-04-10T04:04:59.726Z,4.75
2019-04-10T04:07:33.105Z,4.55
2019-04-10T04:10:06.358Z,3.85
2019-04-10T04:12:39.155Z,7.05
2019-04-10T04:15:13.555Z,3.40
2019-04-10T04:17:46.496Z,4.37
2019-04-10T04:20:19.098Z,4.05
2019-04-10T04:22:50.958Z,4.40
2019-04-10T04:25:22.685Z,4.47
2019-04-10T04:27:55.738Z,4.75
2019-04-10T04:30:30.350Z,5.70
2019-04-10T04:33:02.525Z,4.25
2019-04-10T04:35:34.679Z,5.10
2019-04-10T04:38:07.148Z,4.90
2019-04-10T04:40:39.153Z,4.00
2019-04-10T04:43:10.875Z,4.00
2019-04-10T04:45:42.595Z,4.33
2019-04-10T04:48:14.578Z,3.02
2019-04-10T04:50:47.061Z,4.08
2019-04-10T04:53:18.783Z,4.87
2019-04-10T04:55:51.421Z,3.60
2019-04-10T04:58:24.266Z,5.15
2019-04-10T05:00:58.483Z,4.47
2019-04-10T05:03:31.392Z,4.37
2019-04-10T05:06:05.604Z,4.47
2019-04-10T05:08:37.910Z,3.52
2019-04-10T05:11:09.885Z,4.37
2019-04-10T05:13:42.417Z,4.35
2019-04-10T05:16:14.900Z,3.80
2019-04-10T05:18:47.613Z,5.00
2019-04-10T05:21:19.528Z,4.67
2019-04-10T05:23:51.345Z,5.87
2019-04-10T05:26:24.261Z,5.87
2019-04-10T05:28:57.026Z,5.53
2019-04-10T05:31:30.178Z,6.08
2019-04-10T05:34:02.977Z,5.75
2019-04-10T05:36:34.943Z,5.30
2019-04-10T05:39:08.616Z,5.05
2019-04-10T05:41:40.373Z,4.78
2019-04-10T05:44:12.153Z,6.47
2019-04-10T05:46:45.227Z,6.50
2019-04-10T05:49:17.314Z,5.47
2019-04-10T05:51:50.091Z,4.65
2019-04-10T05:54:24.601Z,5.33
2019-04-10T05:56:58.994Z,4.80
2019-04-10T05:59:32.468Z,6.40
2019-04-10T06:02:05.317Z,5.97
2019-04-10T06:04:37.827Z,6.22
2019-04-10T06:07:10.647Z,7.12
2019-04-10T06:09:54.017Z,6.00
2019-04-10T06:12:16.091Z,5.97
2019-04-10T06:14:48.531Z,7.60
2019-04-10T06:17:20.748Z,6.97
2019-04-10T06:19:53.114Z,5.92
2019-04-10T06:22:28.408Z,5.40
2019-04-10T06:25:00.767Z,7.50
2019-04-10T06:27:34.440Z,6.80
2019-04-10T06:30:07.889Z,6.58
2019-04-10T06:32:40.208Z,6.58
2019-04-10T06:35:13.495Z,5.75
2019-04-10T06:37:46.414Z,6.78
2019-04-10T06:40:21.083Z,6.60
2019-04-10T06:42:53.924Z,5.92
2019-04-10T06:45:26.267Z,5.17
2019-04-10T06:47:58.425Z,7.70
2019-04-10T06:50:31.482Z,6.58
2019-04-10T06:53:04.171Z,6.28
2019-04-10T06:55:36.480Z,6.90
2019-04-10T06:58:09.788Z,6.90
2019-04-10T07:00:46.679Z,21.33
2019-04-10T07:03:16.943Z,9.18
2019-04-10T07:06:02.467Z,5.37
2019-04-10T07:08:27.262Z,6.20
2019-04-10T07:11:05.110Z,6.05
2019-04-10T07:13:36.847Z,5.05
2019-04-10T07:16:09.544Z,5.53
2019-04-10T07:18:41.220Z,3.87
2019-04-10T07:21:14.583Z,8.43
2019-04-10T07:23:46.937Z,5.75
2019-04-10T07:26:29.122Z,5.35
2019-04-10T07:28:53.358Z,5.85
2019-04-10T07:31:27.435Z,5.10
2019-04-10T07:33:59.962Z,4.75
2019-04-10T07:36:32.898Z,5.00
2019-04-10T07:39:05.501Z,5.75
2019-04-10T07:41:41.720Z,5.47
2019-04-10T07:44:13.542Z,4.17
2019-04-10T07:46:46.535Z,4.58
2019-04-10T07:49:19.820Z,4.53
2019-04-10T07:51:53.902Z,5.53
2019-04-10T07:54:26.723Z,6.00
2019-04-10T07:56:58.492Z,4.90
2019-04-10T07:59:31.464Z,4.25
2019-04-10T08:02:05.947Z,5.62
2019-04-10T08:04:37.408Z,5.10
2019-04-10T08:07:09.526Z,6.17
2019-04-10T08:09:42.943Z,5.37
2019-04-10T08:12:16.073Z,5.65
2019-04-10T08:14:48.902Z,4.95
2019-04-10T08:17:21.795Z,4.97
2019-04-10T08:19:53.668Z,5.47
2019-04-10T08:22:26.433Z,5.20
2019-04-10T08:24:58.264Z,5.15
2019-04-10T08:27:30.022Z,5.22
2019-04-10T08:30:01.768Z,4.65
2019-04-10T08:32:47.306Z,5.78
2019-04-10T08:35:08.970Z,5.72
2019-04-10T08:37:41.159Z,6.28
2019-04-10T08:40:13.514Z,5.60
2019-04-10T08:42:46.623Z,6.22
2019-04-10T08:45:19.011Z,5.95
2019-04-10T08:47:52.644Z,7.12
2019-04-10T08:50:24.670Z,6.85
2019-04-10T08:52:56.405Z,6.28
2019-04-10T08:55:28.315Z,6.25
2019-04-10T08:58:00.756Z,6.22
2019-04-10T09:00:32.853Z,6.08
2019-04-10T09:03:04.813Z,6.97
2019-04-10T09:05:38.569Z,6.90
2019-04-10T09:08:10.804Z,6.87
2019-04-10T09:10:42.943Z,6.95
2019-04-10T09:13:14.744Z,5.40
2019-04-10T09:15:47.943Z,6.03
2019-04-10T09:18:20.972Z,4.72
2019-04-10T09:20:53.143Z,4.30
2019-04-10T09:23:36.232Z,4.92
2019-04-10T09:25:59.571Z,3.83
2019-04-10T09:28:33.307Z,4.60
2019-04-10T09:31:05.172Z,4.20
2019-04-10T09:33:37.029Z,5.15
2019-04-10T09:36:09.087Z,3.90
2019-04-10T09:38:41.290Z,3.47
2019-04-10T09:41:13.998Z,3.65
2019-04-10T09:43:51.153Z,2.75
2019-04-10T09:46:22.869Z,3.52
2019-04-10T09:48:54.676Z,4.90
2019-04-10T09:51:26.682Z,5.12
2019-04-10T09:53:59.437Z,5.00
2019-04-10T09:56:32.078Z,5.03
2019-04-10T09:59:04.045Z,5.08
2019-04-10T10:01:37.958Z,2.83
2019-04-10T10:04:10.044Z,3.65
2019-04-10T10:06:41.770Z,3.77
2019-04-10T10:09:15.357Z,3.10
2019-04-10T10:11:49.753Z,2.77
2019-04-10T10:14:21.678Z,2.98
2019-04-10T10:16:53.397Z,3.65
2019-04-10T10:19:25.960Z,3.72
2019-04-10T10:22:01.625Z,4.35
2019-04-10T10:24:33.113Z,3.80
2019-04-10T10:27:05.345Z,5.25
2019-04-10T10:29:37.684Z,3.12
2019-04-10T10:32:09.446Z,3.70
2019-04-10T10:34:41.180Z,3.58
2019-04-10T10:37:13.010Z,3.10
2019-04-10T10:39:47.242Z,2.92
2019-04-10T10:42:19.334Z,3.35
2019-04-10T10:44:58.487Z,2.85
2019-04-10T10:47:30.702Z,2.67
2019-04-10T10:50:04.613Z,3.58
2019-04-10T10:52:37.631Z,3.05
2019-04-10T10:55:11.663Z,4.20
2019-04-10T10:57:45.446Z,4.37
2019-04-10T11:00:18.921Z,3.62
2019-04-10T11:02:51.834Z,3.60
2019-04-10T11:05:23.715Z,3.12
2019-04-10T11:07:55.889Z,3.75
2019-04-10T11:10:27.716Z,3.72
2019-04-10T11:13:00.074Z,3.62
2019-04-10T11:15:32.048Z,3.20
2019-04-10T11:18:04.288Z,3.52
2019-04-10T11:20:36.476Z,3.35
2019-04-10T11:23:09.406Z,3.02
2019-04-10T11:25:43.865Z,2.75
2019-04-10T11:28:16.273Z,2.10
2019-04-10T11:30:49.167Z,2.62
2019-04-10T11:33:22.294Z,2.87
2019-04-10T11:35:55.234Z,2.25
2019-04-10T11:38:27.336Z,2.58
2019-04-10T11:41:00.108Z,3.10
2019-04-10T11:43:33.642Z,2.05
2019-04-10T11:46:07.810Z,2.37
2019-04-10T11:48:41.854Z,2.12
2019-04-10T11:51:14.144Z,2.52
2019-04-10T11:53:48.700Z,2.90
2019-04-10T11:56:21.094Z,2.87
2019-04-10T11:58:56.318Z,2.35
2019-04-10T12:01:30.943Z,3.20
2019-04-10T12:04:05.124Z,3.10
2019-04-10T12:06:38.218Z,3.20
2019-04-10T12:09:56.936Z,2.77
2019-04-10T12:11:50.299Z,2.25
2019-04-10T12:14:23.638Z,2.65
2019-04-10T12:16:55.823Z,2.77
2019-04-10T12:19:28.946Z,2.47
2019-04-10T12:22:01.210Z,2.40
2019-04-10T12:24:32.912Z,2.77
2019-04-10T12:27:04.685Z,2.65
2019-04-10T12:29:38.467Z,2.40
2019-04-10T12:32:10.673Z,2.87
2019-04-10T12:34:43.244Z,2.33
2019-04-10T12:37:15.401Z,2.87
2019-04-10T12:39:47.872Z,2.27
2019-04-10T12:42:21.845Z,2.70
2019-04-10T12:44:53.665Z,3.00
2019-04-10T12:47:25.944Z,2.50
2019-04-10T12:49:58.338Z,3.30
2019-04-10T12:52:30.449Z,3.30
2019-04-10T12:55:02.174Z,3.15
2019-04-10T12:57:34.736Z,2.90
2019-04-10T13:00:09.628Z,2.85
2019-04-10T13:02:42.715Z,3.45
2019-04-10T13:05:14.565Z,2.75
2019-04-10T13:07:47.775Z,2.67
2019-04-10T13:10:20.381Z,3.47
2019-04-10T13:12:53.277Z,3.10
2019-04-10T13:15:25.687Z,2.72
2019-04-10T13:17:58.398Z,3.05
2019-04-10T13:20:31.568Z,2.50
2019-04-10T13:23:04.438Z,2.45
2019-04-10T13:25:36.716Z,2.50
2019-04-10T13:28:09.867Z,2.37
2019-04-10T13:30:49.717Z,2.67
2019-04-10T13:33:16.228Z,2.30
2019-04-10T13:35:49.126Z,2.50
2019-04-10T13:38:26.592Z,1.95
2019-04-10T13:40:54.752Z,2.12
2019-04-10T13:43:27.614Z,2.58
2019-04-10T13:46:00.444Z,2.15
2019-04-10T13:48:33.230Z,1.98
2019-04-10T13:51:05.417Z,2.47
2019-04-10T13:53:37.757Z,2.22
2019-04-10T13:56:11.413Z,2.67
2019-04-10T13:58:43.130Z,2.10
2019-04-10T14:01:20.292Z,2.00
2019-04-10T14:03:52.435Z,2.05
2019-04-10T14:06:25.420Z,1.70
2019-04-10T14:09:11.894Z,1.80
2019-04-10T14:11:30.782Z,2.25
2019-04-10T14:14:04.403Z,1.95
2019-04-10T14:16:37.825Z,2.40
2019-04-10T14:19:09.842Z,1.62
2019-04-10T14:21:41.570Z,1.90
2019-04-10T14:24:13.369Z,1.82
2019-04-10T14:27:01.618Z,2.12
2019-04-10T14:29:34.328Z,1.75
2019-04-10T14:32:09.150Z,1.82
2019-04-10T14:34:40.955Z,1.52
2019-04-10T14:37:13.833Z,2.27
2019-04-10T14:39:45.563Z,1.70
2019-04-10T14:42:18.478Z,1.98
2019-04-10T14:44:50.284Z,2.30
2019-04-10T14:47:25.695Z,2.12
2019-04-10T14:49:58.026Z,1.75
2019-04-10T14:52:30.165Z,2.17
2019-04-10T14:55:02.162Z,1.82
2019-04-10T14:57:34.965Z,1.70
2019-04-10T15:00:08.862Z,2.20
2019-04-10T15:02:41.268Z,2.30
2019-04-10T15:05:13.379Z,1.50
2019-04-10T15:07:45.148Z,2.27
2019-04-10T15:10:17.059Z,2.42
2019-04-10T15:12:49.731Z,1.80
2019-04-10T15:15:21.578Z,2.22
2019-04-10T15:17:54.158Z,1.90
2019-04-10T15:20:26.009Z,2.30
2019-04-10T15:22:58.637Z,2.02
2019-04-10T15:25:31.157Z,2.15
2019-04-10T15:28:02.936Z,2.20
2019-04-10T15:30:35.593Z,2.08
2019-04-10T15:33:07.314Z,2.60
2019-04-10T15:35:39.211Z,1.77
2019-04-10T15:38:18.716Z,1.67
2019-04-10T15:40:52.572Z,2.25
2019-04-10T15:43:25.402Z,2.83
2019-04-10T15:45:57.796Z,1.60
2019-04-10T15:48:29.551Z,2.20
2019-04-10T15:51:01.339Z,1.90
2019-04-10T15:53:34.534Z,2.40
2019-04-10T15:56:06.506Z,1.95
2019-04-10T15:58:38.226Z,2.15
2019-04-10T16:01:13.966Z,2.65
2019-04-10T16:03:45.663Z,1.77
2019-04-10T16:06:17.535Z,2.50
2019-04-10T16:08:50.271Z,1.87
2019-04-10T16:11:57.068Z,1.92
2019-04-10T16:14:31.497Z,3.65
2019-04-10T16:17:22.903Z,2.10
2019-04-10T16:20:02.090Z,1.72
2019-04-10T16:22:40.548Z,2.98
2019-04-10T16:25:17.866Z,1.98
2019-04-10T16:27:50.076Z,2.05
2019-04-10T16:30:24.230Z,2.25
2019-04-10T16:32:55.988Z,2.05
2019-04-10T16:35:32.485Z,2.20
2019-04-10T16:38:05.124Z,1.95
2019-04-10T16:40:40.050Z,1.80
2019-04-10T16:43:13.843Z,2.20
2019-04-10T16:45:46.922Z,2.37
2019-04-10T16:48:18.939Z,2.10
2019-04-10T16:50:51.853Z,1.90
2019-04-10T16:53:23.787Z,2.60
2019-04-10T16:55:56.780Z,1.92
2019-04-10T16:58:29.740Z,2.42
2019-04-10T17:01:02.249Z,2.00
2019-04-10T17:03:34.255Z,2.15
2019-04-10T17:06:06.106Z,2.75
2019-04-10T17:08:40.538Z,1.92
2019-04-10T17:11:13.310Z,2.45
2019-04-10T17:13:45.075Z,2.22
2019-04-10T17:16:17.726Z,2.17
2019-04-10T17:18:49.665Z,3.00
2019-04-10T17:21:23.090Z,2.08
2019-04-10T17:23:54.859Z,2.40
2019-04-10T17:26:26.957Z,3.27
2019-04-10T17:28:58.899Z,2.37
2019-04-10T17:31:32.818Z,2.35
2019-04-10T17:34:04.673Z,2.08
2019-04-10T17:36:36.885Z,3.00
2019-04-10T17:39:16.184Z,2.55
2019-04-10T17:41:48.193Z,2.27
2019-04-10T17:44:21.658Z,3.00
2019-04-10T17:46:53.438Z,3.20
2019-04-10T17:49:25.858Z,2.65
2019-04-10T17:51:58.715Z,3.25
2019-04-10T17:54:31.408Z,2.25
2019-04-10T17:57:04.510Z,2.02
2019-04-10T17:59:36.584Z,2.58
2019-04-10T18:02:11.764Z,3.70
2019-04-10T18:04:44.242Z,3.72
2019-04-10T18:07:16.307Z,2.72
2019-04-10T18:09:48.567Z,2.25
2019-04-10T18:12:21.619Z,2.10
2019-04-10T18:14:53.576Z,1.95
2019-04-10T18:17:25.410Z,2.83
2019-04-10T18:19:57.175Z,2.62
2019-04-10T18:22:30.689Z,2.55
2019-04-10T18:25:03.484Z,2.90
2019-04-10T18:27:36.493Z,2.85
2019-04-10T18:30:09.939Z,2.70
2019-04-10T18:32:42.209Z,2.80
2019-04-10T18:35:14.330Z,3.30
2019-04-10T18:37:47.689Z,2.95
2019-04-10T18:40:21.698Z,2.60
2019-04-10T18:42:56.138Z,3.65
2019-04-10T18:45:28.025Z,4.87
2019-04-10T18:48:00.620Z,3.80
2019-04-10T18:50:32.719Z,3.30
2019-04-10T18:53:04.621Z,2.70
2019-04-10T18:55:36.861Z,2.67
2019-04-10T18:58:13.730Z,2.75
2019-04-10T19:01:14.225Z,3.10
2019-04-10T19:04:16.816Z,4.50
2019-04-10T19:06:57.293Z,3.02
2019-04-10T19:09:36.862Z,3.15
2019-04-10T19:12:08.893Z,2.87
2019-04-10T19:14:40.804Z,4.03
2019-04-10T19:17:13.007Z,3.83
2019-04-10T19:19:45.423Z,3.92
2019-04-10T19:22:20.300Z,3.65
2019-04-10T19:24:52.542Z,3.85
2019-04-10T19:27:25.549Z,3.60
2019-04-10T19:30:00.886Z,4.12
2019-04-10T19:32:37.435Z,4.37
2019-04-10T19:35:09.442Z,4.62
2019-04-10T19:37:42.666Z,4.37
2019-04-10T19:40:15.926Z,3.67
2019-04-10T19:42:47.766Z,4.55
2019-04-10T19:45:19.582Z,4.10
2019-04-10T19:47:52.719Z,4.45
2019-04-10T19:50:25.527Z,4.60
2019-04-10T19:52:57.715Z,6.55
2019-04-10T19:55:30.257Z,4.65
2019-04-10T19:58:03.830Z,5.22
2019-04-10T20:00:36.876Z,4.65
2019-04-10T20:03:11.194Z,5.78
2019-04-10T20:05:44.243Z,7.60
2019-04-10T20:08:17.516Z,5.22
2019-04-10T20:10:50.469Z,4.35
2019-04-10T20:13:22.730Z,4.37
2019-04-10T20:15:55.181Z,12.18
2019-04-10T20:18:29.632Z,17.77
2019-04-10T20:21:03.850Z,19.02
2019-04-10T20:23:36.155Z,31.00
2019-04-10T20:26:08.283Z,12.47
2019-04-10T20:28:42.805Z,6.70
2019-04-10T20:31:25.557Z,7.10
2019-04-10T20:33:57.568Z,9.28
2019-04-10T20:36:31.803Z,20.35
2019-04-10T20:39:05.949Z,12.37
2019-04-10T20:41:46.534Z,7.25
2019-04-10T20:44:12.463Z,6.65
2019-04-10T20:46:44.518Z,6.08
2019-04-10T20:49:16.689Z,5.00
2019-04-10T20:51:48.927Z,5.92
2019-04-10T20:54:22.510Z,5.47
2019-04-10T20:56:54.891Z,4.72
2019-04-10T20:59:26.924Z,5.83
2019-04-10T21:01:59.934Z,4.45
2019-04-10T21:04:33.848Z,4.87
2019-04-10T21:07:06.902Z,4.83
2019-04-10T21:09:39.584Z,5.40
2019-04-10T21:12:17.466Z,5.20
2019-04-10T21:14:47.789Z,4.28
2019-04-10T21:17:20.512Z,4.40
2019-04-10T21:19:53.692Z,5.20
2019-04-10T21:22:26.506Z,5.17
2019-04-10T21:25:00.593Z,5.47
2019-04-10T21:27:32.988Z,4.58
2019-04-10T21:30:24.226Z,5.53
2019-04-10T21:33:18.389Z,5.15
2019-04-10T21:35:51.958Z,5.20
2019-04-10T21:38:26.196Z,5.75
2019-04-10T21:40:59.393Z,6.40
2019-04-10T21:43:32.624Z,7.35
2019-04-10T21:46:06.085Z,6.30
2019-04-10T21:48:39.104Z,6.45
2019-04-10T21:51:12.204Z,9.20
2019-04-10T21:53:45.162Z,8.95
2019-04-10T21:56:18.075Z,11.30
2019-04-10T21:58:50.076Z,8.73
2019-04-10T22:01:24.244Z,7.33
2019-04-10T22:03:58.482Z,7.08
2019-04-10T22:06:40.168Z,6.80
2019-04-10T22:09:30.541Z,6.92
2019-04-10T22:12:22.197Z,7.17
2019-04-10T22:14:43.872Z,7.78
2019-04-10T22:17:17.493Z,6.60
2019-04-10T22:19:49.322Z,6.67
2019-04-10T22:22:22.255Z,8.93
2019-04-10T22:24:54.764Z,8.83
2019-04-10T22:27:29.553Z,7.20
2019-04-10T22:30:02.896Z,7.35
2019-04-10T22:32:36.179Z,7.83
2019-04-10T22:35:08.966Z,7.62
2019-04-10T22:37:41.290Z,7.97
2019-04-10T22:40:13.132Z,7.42
2019-04-10T22:42:47.873Z,8.85
2019-04-10T22:45:30.910Z,7.10
2019-04-10T22:48:04.048Z,8.75
2019-04-10T22:50:36.474Z,8.20
2019-04-10T22:53:08.918Z,7.12
2019-04-10T22:55:42.060Z,7.62
2019-04-10T22:58:15.325Z,7.45
2019-04-10T23:00:48.844Z,7.17
2019-04-10T23:03:22.318Z,10.63
2019-04-10T23:05:56.492Z,10.95
2019-04-10T23:08:28.898Z,8.68
2019-04-10T23:11:01.481Z,9.80
2019-04-10T23:13:36.305Z,8.35
2019-04-10T23:16:09.266Z,8.55
2019-04-10T23:18:41.409Z,8.88
2019-04-10T23:21:14.472Z,9.00
2019-04-10T23:23:47.523Z,8.85
2019-04-10T23:26:24.942Z,8.95
2019-04-10T23:28:57.897Z,9.10
2019-04-10T23:31:29.888Z,9.30
2019-04-10T23:34:01.720Z,9.03
2019-04-10T23:36:34.027Z,9.53
2019-04-10T23:39:08.103Z,9.70
2019-04-10T23:41:40.158Z,8.75
2019-04-10T23:44:13.565Z,8.98
2019-04-10T23:46:47.466Z,9.30
2019-04-10T23:49:19.525Z,9.10
2019-04-10T23:51:53.603Z,9.98
2019-04-10T23:54:27.032Z,9.68
2019-04-10T23:56:59.104Z,9.13
2019-04-10T23:59:30.930Z,8.63
